sensor_id;sensor_type;location;lat;lon;timestamp;P1;durP1;ratioP1;P2;durP2;ratioP2
12332;SDS011;6232;48.094;11.288;2022-09-25T00:02:02;7.50;;;6.77;;
12332;SDS011;6232;48.094;11.288;2022-09-25T00:04:47;8.37;;;6.47;;
12332;SDS011;6232;48.094;11.288;2022-09-25T00:07:33;10.57;;;7.70;;
12332;SDS011;6232;48.094;11.288;2022-09-25T00:10:19;8.80;;;6.97;;
12332;SDS011;6232;48.094;11.288;2022-09-25T00:13:04;8.47;;;6.97;;
12332;SDS011;6232;48.094;11.288;2022-09-25T00:15:51;8.00;;;7.20;;
12332;SDS011;6232;48.094;11.288;2022-09-25T00:18:37;8.00;;;7.20;;
12332;SDS011;6232;48.094;11.288;2022-09-25T00:21:42;10.97;;;6.83;;
12332;SDS011;6232;48.094;11.288;2022-09-25T00:24:27;8.00;;;6.80;;
12332;SDS011;6232;48.094;11.288;2022-09-25T00:27:13;10.60;;;7.07;;
12332;SDS011;6232;48.094;11.288;2022-09-25T00:29:59;11.23;;;7.67;;
12332;SDS011;6232;48.094;11.288;2022-09-25T00:32:45;10.50;;;7.07;;
12332;SDS011;6232;48.094;11.288;2022-09-25T00:35:30;7.40;;;6.53;;
12332;SDS011;6232;48.094;11.288;2022-09-25T00:38:17;8.07;;;7.17;;
12332;SDS011;6232;48.094;11.288;2022-09-25T00:41:04;7.90;;;7.00;;
12332;SDS011;6232;48.094;11.288;2022-09-25T00:43:51;10.03;;;6.17;;
12332;SDS011;6232;48.094;11.288;2022-09-25T00:46:38;16.73;;;6.73;;
12332;SDS011;6232;48.094;11.288;2022-09-25T00:49:24;8.37;;;7.03;;
12332;SDS011;6232;48.094;11.288;2022-09-25T00:52:10;6.67;;;5.87;;
12332;SDS011;6232;48.094;11.288;2022-09-25T00:54:58;9.27;;;7.67;;
12332;SDS011;6232;48.094;11.288;2022-09-25T00:57:45;10.70;;;7.43;;
12332;SDS011;6232;48.094;11.288;2022-09-25T01:00:33;8.17;;;6.90;;
12332;SDS011;6232;48.094;11.288;2022-09-25T01:03:19;7.90;;;7.03;;
12332;SDS011;6232;48.094;11.288;2022-09-25T01:06:05;10.40;;;8.43;;
12332;SDS011;6232;48.094;11.288;2022-09-25T01:08:50;14.07;;;8.00;;
12332;SDS011;6232;48.094;11.288;2022-09-25T01:11:36;10.10;;;8.20;;
12332;SDS011;6232;48.094;11.288;2022-09-25T01:14:22;9.80;;;7.83;;
12332;SDS011;6232;48.094;11.288;2022-09-25T01:17:20;8.67;;;7.80;;
12332;SDS011;6232;48.094;11.288;2022-09-25T01:32:10;8.00;;;6.93;;
12332;SDS011;6232;48.094;11.288;2022-09-25T01:34:59;9.10;;;7.03;;
12332;SDS011;6232;48.094;11.288;2022-09-25T01:40:36;11.23;;;8.87;;
12332;SDS011;6232;48.094;11.288;2022-09-25T01:43:39;10.90;;;8.47;;
12332;SDS011;6232;48.094;11.288;2022-09-25T01:46:30;15.70;;;8.40;;
12332;SDS011;6232;48.094;11.288;2022-09-25T01:52:06;12.87;;;10.27;;
12332;SDS011;6232;48.094;11.288;2022-09-25T01:54:57;12.13;;;9.27;;
12332;SDS011;6232;48.094;11.288;2022-09-25T01:57:49;13.60;;;11.10;;
12332;SDS011;6232;48.094;11.288;2022-09-25T02:00:39;15.60;;;11.03;;
12332;SDS011;6232;48.094;11.288;2022-09-25T02:03:26;14.30;;;10.20;;
12332;SDS011;6232;48.094;11.288;2022-09-25T02:06:13;13.20;;;9.07;;
12332;SDS011;6232;48.094;11.288;2022-09-25T02:09:12;13.73;;;10.73;;
12332;SDS011;6232;48.094;11.288;2022-09-25T02:12:00;13.40;;;10.40;;
12332;SDS011;6232;48.094;11.288;2022-09-25T02:14:53;10.43;;;9.30;;
12332;SDS011;6232;48.094;11.288;2022-09-25T02:17:53;13.00;;;10.67;;
12332;SDS011;6232;48.094;11.288;2022-09-25T02:23:58;11.87;;;9.07;;
12332;SDS011;6232;48.094;11.288;2022-09-25T02:26:46;11.73;;;9.70;;
12332;SDS011;6232;48.094;11.288;2022-09-25T02:29:32;11.37;;;9.30;;
12332;SDS011;6232;48.094;11.288;2022-09-25T02:32:19;7.63;;;6.93;;
12332;SDS011;6232;48.094;11.288;2022-09-25T02:35:06;11.00;;;8.33;;
12332;SDS011;6232;48.094;11.288;2022-09-25T02:37:53;17.33;;;8.33;;
12332;SDS011;6232;48.094;11.288;2022-09-25T02:40:45;9.87;;;8.27;;
12332;SDS011;6232;48.094;11.288;2022-09-25T02:43:43;7.97;;;7.17;;
12332;SDS011;6232;48.094;11.288;2022-09-25T02:46:38;9.00;;;7.50;;
12332;SDS011;6232;48.094;11.288;2022-09-25T02:49:31;8.30;;;6.50;;
12332;SDS011;6232;48.094;11.288;2022-09-25T02:52:27;8.83;;;7.63;;
12332;SDS011;6232;48.094;11.288;2022-09-25T02:55:16;11.33;;;8.00;;
12332;SDS011;6232;48.094;11.288;2022-09-25T02:58:14;11.47;;;7.00;;
12332;SDS011;6232;48.094;11.288;2022-09-25T03:01:01;9.50;;;7.50;;
12332;SDS011;6232;48.094;11.288;2022-09-25T03:03:48;7.93;;;6.97;;
12332;SDS011;6232;48.094;11.288;2022-09-25T03:06:35;9.23;;;7.60;;
12332;SDS011;6232;48.094;11.288;2022-09-25T03:09:21;7.87;;;7.10;;
12332;SDS011;6232;48.094;11.288;2022-09-25T03:12:08;7.97;;;6.47;;
12332;SDS011;6232;48.094;11.288;2022-09-25T03:14:53;11.03;;;7.30;;
12332;SDS011;6232;48.094;11.288;2022-09-25T03:17:39;9.67;;;7.03;;
12332;SDS011;6232;48.094;11.288;2022-09-25T03:20:24;6.97;;;6.27;;
12332;SDS011;6232;48.094;11.288;2022-09-25T03:23:10;10.10;;;7.23;;
12332;SDS011;6232;48.094;11.288;2022-09-25T03:25:56;6.77;;;6.07;;
12332;SDS011;6232;48.094;11.288;2022-09-25T03:28:41;10.57;;;6.73;;
12332;SDS011;6232;48.094;11.288;2022-09-25T03:31:27;8.57;;;6.73;;
12332;SDS011;6232;48.094;11.288;2022-09-25T03:34:15;20.23;;;7.60;;
12332;SDS011;6232;48.094;11.288;2022-09-25T03:37:01;7.87;;;6.87;;
12332;SDS011;6232;48.094;11.288;2022-09-25T03:39:46;7.70;;;6.40;;
12332;SDS011;6232;48.094;11.288;2022-09-25T03:42:32;8.30;;;6.17;;
12332;SDS011;6232;48.094;11.288;2022-09-25T03:45:18;9.53;;;6.63;;
12332;SDS011;6232;48.094;11.288;2022-09-25T03:48:03;8.00;;;6.50;;
12332;SDS011;6232;48.094;11.288;2022-09-25T03:50:49;12.93;;;7.30;;
12332;SDS011;6232;48.094;11.288;2022-09-25T03:53:35;10.37;;;7.40;;
12332;SDS011;6232;48.094;11.288;2022-09-25T03:56:21;28.47;;;8.70;;
12332;SDS011;6232;48.094;11.288;2022-09-25T03:59:07;28.37;;;9.07;;
12332;SDS011;6232;48.094;11.288;2022-09-25T04:01:53;19.03;;;9.37;;
12332;SDS011;6232;48.094;11.288;2022-09-25T04:04:38;17.10;;;9.10;;
12332;SDS011;6232;48.094;11.288;2022-09-25T04:07:24;23.00;;;10.20;;
12332;SDS011;6232;48.094;11.288;2022-09-25T04:10:10;24.10;;;8.50;;
12332;SDS011;6232;48.094;11.288;2022-09-25T04:12:56;24.03;;;9.10;;
12332;SDS011;6232;48.094;11.288;2022-09-25T04:15:41;19.73;;;8.97;;
12332;SDS011;6232;48.094;11.288;2022-09-25T04:18:27;46.07;;;9.20;;
12332;SDS011;6232;48.094;11.288;2022-09-25T04:21:16;20.10;;;8.40;;
12332;SDS011;6232;48.094;11.288;2022-09-25T04:24:01;19.20;;;9.87;;
12332;SDS011;6232;48.094;11.288;2022-09-25T04:27:05;21.57;;;8.80;;
12332;SDS011;6232;48.094;11.288;2022-09-25T04:29:53;13.47;;;8.30;;
12332;SDS011;6232;48.094;11.288;2022-09-25T04:32:38;29.30;;;8.50;;
12332;SDS011;6232;48.094;11.288;2022-09-25T04:35:43;37.80;;;8.00;;
12332;SDS011;6232;48.094;11.288;2022-09-25T04:38:28;24.90;;;7.37;;
12332;SDS011;6232;48.094;11.288;2022-09-25T04:41:17;13.23;;;7.77;;
12332;SDS011;6232;48.094;11.288;2022-09-25T04:44:04;13.77;;;8.37;;
12332;SDS011;6232;48.094;11.288;2022-09-25T04:46:49;10.07;;;8.80;;
12332;SDS011;6232;48.094;11.288;2022-09-25T04:49:36;10.67;;;7.07;;
12332;SDS011;6232;48.094;11.288;2022-09-25T04:52:22;9.00;;;7.37;;
12332;SDS011;6232;48.094;11.288;2022-09-25T04:55:08;9.40;;;8.27;;
12332;SDS011;6232;48.094;11.288;2022-09-25T04:57:54;8.60;;;6.77;;
12332;SDS011;6232;48.094;11.288;2022-09-25T05:00:40;10.40;;;8.00;;
12332;SDS011;6232;48.094;11.288;2022-09-25T05:03:26;8.80;;;7.90;;
12332;SDS011;6232;48.094;11.288;2022-09-25T05:06:14;11.07;;;8.30;;
12332;SDS011;6232;48.094;11.288;2022-09-25T05:08:59;10.00;;;8.37;;
12332;SDS011;6232;48.094;11.288;2022-09-25T05:11:45;9.00;;;7.80;;
12332;SDS011;6232;48.094;11.288;2022-09-25T05:14:31;8.70;;;7.80;;
12332;SDS011;6232;48.094;11.288;2022-09-25T05:17:17;8.13;;;7.27;;
12332;SDS011;6232;48.094;11.288;2022-09-25T05:20:02;8.37;;;7.27;;
12332;SDS011;6232;48.094;11.288;2022-09-25T05:22:48;10.63;;;8.47;;
12332;SDS011;6232;48.094;11.288;2022-09-25T05:25:33;8.77;;;6.90;;
12332;SDS011;6232;48.094;11.288;2022-09-25T05:28:19;11.77;;;8.50;;
12332;SDS011;6232;48.094;11.288;2022-09-25T05:31:05;9.80;;;8.50;;
12332;SDS011;6232;48.094;11.288;2022-09-25T05:33:50;9.70;;;7.50;;
12332;SDS011;6232;48.094;11.288;2022-09-25T05:36:36;9.10;;;7.77;;
12332;SDS011;6232;48.094;11.288;2022-09-25T05:39:22;9.77;;;8.30;;
12332;SDS011;6232;48.094;11.288;2022-09-25T05:42:08;11.83;;;7.87;;
12332;SDS011;6232;48.094;11.288;2022-09-25T05:44:53;9.60;;;7.87;;
12332;SDS011;6232;48.094;11.288;2022-09-25T05:47:39;10.07;;;8.60;;
12332;SDS011;6232;48.094;11.288;2022-09-25T05:50:25;11.27;;;9.23;;
12332;SDS011;6232;48.094;11.288;2022-09-25T05:53:11;9.67;;;8.20;;
12332;SDS011;6232;48.094;11.288;2022-09-25T05:55:57;8.97;;;8.00;;
12332;SDS011;6232;48.094;11.288;2022-09-25T05:58:44;9.10;;;8.13;;
12332;SDS011;6232;48.094;11.288;2022-09-25T06:01:29;9.77;;;8.03;;
12332;SDS011;6232;48.094;11.288;2022-09-25T06:04:15;10.10;;;8.07;;
12332;SDS011;6232;48.094;11.288;2022-09-25T06:07:01;11.10;;;7.83;;
12332;SDS011;6232;48.094;11.288;2022-09-25T06:09:47;10.93;;;9.07;;
12332;SDS011;6232;48.094;11.288;2022-09-25T06:12:32;8.73;;;7.83;;
12332;SDS011;6232;48.094;11.288;2022-09-25T06:15:18;11.83;;;8.83;;
12332;SDS011;6232;48.094;11.288;2022-09-25T06:18:03;10.17;;;8.03;;
12332;SDS011;6232;48.094;11.288;2022-09-25T06:20:49;9.27;;;7.63;;
12332;SDS011;6232;48.094;11.288;2022-09-25T06:23:35;9.37;;;8.33;;
12332;SDS011;6232;48.094;11.288;2022-09-25T06:26:20;11.30;;;9.07;;
12332;SDS011;6232;48.094;11.288;2022-09-25T06:29:06;10.23;;;8.40;;
12332;SDS011;6232;48.094;11.288;2022-09-25T06:31:52;11.10;;;8.23;;
12332;SDS011;6232;48.094;11.288;2022-09-25T06:34:37;14.90;;;8.50;;
12332;SDS011;6232;48.094;11.288;2022-09-25T06:37:23;10.47;;;8.37;;
12332;SDS011;6232;48.094;11.288;2022-09-25T06:40:08;8.60;;;7.60;;
12332;SDS011;6232;48.094;11.288;2022-09-25T06:42:55;13.30;;;8.77;;
12332;SDS011;6232;48.094;11.288;2022-09-25T06:45:41;9.70;;;8.47;;
12332;SDS011;6232;48.094;11.288;2022-09-25T06:48:26;9.77;;;8.77;;
12332;SDS011;6232;48.094;11.288;2022-09-25T06:51:12;13.13;;;9.87;;
12332;SDS011;6232;48.094;11.288;2022-09-25T06:53:57;9.70;;;8.70;;
12332;SDS011;6232;48.094;11.288;2022-09-25T06:56:47;12.87;;;9.80;;
12332;SDS011;6232;48.094;11.288;2022-09-25T06:59:32;10.30;;;8.43;;
12332;SDS011;6232;48.094;11.288;2022-09-25T07:02:18;9.93;;;7.90;;
12332;SDS011;6232;48.094;11.288;2022-09-25T07:05:22;9.63;;;8.63;;
12332;SDS011;6232;48.094;11.288;2022-09-25T07:08:07;10.80;;;8.90;;
12332;SDS011;6232;48.094;11.288;2022-09-25T07:10:54;9.30;;;8.40;;
12332;SDS011;6232;48.094;11.288;2022-09-25T07:13:40;8.03;;;7.23;;
12332;SDS011;6232;48.094;11.288;2022-09-25T07:16:27;7.70;;;6.90;;
12332;SDS011;6232;48.094;11.288;2022-09-25T07:19:13;7.40;;;6.70;;
12332;SDS011;6232;48.094;11.288;2022-09-25T07:21:59;8.40;;;7.57;;
12332;SDS011;6232;48.094;11.288;2022-09-25T07:24:44;8.80;;;7.90;;
12332;SDS011;6232;48.094;11.288;2022-09-25T07:27:30;6.97;;;6.37;;
12332;SDS011;6232;48.094;11.288;2022-09-25T07:30:15;7.37;;;6.63;;
12332;SDS011;6232;48.094;11.288;2022-09-25T07:33:01;8.13;;;6.37;;
12332;SDS011;6232;48.094;11.288;2022-09-25T07:35:47;6.10;;;5.60;;
12332;SDS011;6232;48.094;11.288;2022-09-25T07:38:32;6.83;;;6.23;;
12332;SDS011;6232;48.094;11.288;2022-09-25T07:41:19;6.30;;;5.70;;
12332;SDS011;6232;48.094;11.288;2022-09-25T07:44:06;7.60;;;6.90;;
12332;SDS011;6232;48.094;11.288;2022-09-25T07:46:52;6.53;;;5.93;;
12332;SDS011;6232;48.094;11.288;2022-09-25T07:49:37;7.70;;;6.00;;
12332;SDS011;6232;48.094;11.288;2022-09-25T07:52:24;6.90;;;6.03;;
12332;SDS011;6232;48.094;11.288;2022-09-25T07:55:09;6.60;;;6.00;;
12332;SDS011;6232;48.094;11.288;2022-09-25T07:57:56;8.07;;;6.60;;
12332;SDS011;6232;48.094;11.288;2022-09-25T08:00:41;6.70;;;5.90;;
12332;SDS011;6232;48.094;11.288;2022-09-25T08:03:27;11.17;;;6.87;;
12332;SDS011;6232;48.094;11.288;2022-09-25T08:06:13;7.80;;;6.87;;
12332;SDS011;6232;48.094;11.288;2022-09-25T08:08:59;8.63;;;7.80;;
12332;SDS011;6232;48.094;11.288;2022-09-25T08:11:44;7.47;;;6.77;;
12332;SDS011;6232;48.094;11.288;2022-09-25T08:14:30;7.83;;;7.03;;
12332;SDS011;6232;48.094;11.288;2022-09-25T08:17:17;11.63;;;7.57;;
12332;SDS011;6232;48.094;11.288;2022-09-25T08:20:04;8.20;;;7.23;;
12332;SDS011;6232;48.094;11.288;2022-09-25T08:22:52;9.50;;;8.50;;
12332;SDS011;6232;48.094;11.288;2022-09-25T08:25:37;12.73;;;9.50;;
12332;SDS011;6232;48.094;11.288;2022-09-25T08:28:23;11.10;;;8.20;;
12332;SDS011;6232;48.094;11.288;2022-09-25T08:31:09;8.30;;;7.33;;
12332;SDS011;6232;48.094;11.288;2022-09-25T08:33:54;10.70;;;7.37;;
12332;SDS011;6232;48.094;11.288;2022-09-25T08:36:40;10.60;;;7.90;;
12332;SDS011;6232;48.094;11.288;2022-09-25T08:39:25;10.30;;;7.83;;
12332;SDS011;6232;48.094;11.288;2022-09-25T08:42:14;9.50;;;7.67;;
12332;SDS011;6232;48.094;11.288;2022-09-25T08:45:02;10.47;;;8.60;;
12332;SDS011;6232;48.094;11.288;2022-09-25T08:48:08;8.60;;;7.10;;
12332;SDS011;6232;48.094;11.288;2022-09-25T08:51:16;8.23;;;7.43;;
12332;SDS011;6232;48.094;11.288;2022-09-25T08:54:03;10.47;;;8.20;;
12332;SDS011;6232;48.094;11.288;2022-09-25T08:56:49;9.67;;;7.83;;
12332;SDS011;6232;48.094;11.288;2022-09-25T08:59:37;7.77;;;6.97;;
12332;SDS011;6232;48.094;11.288;2022-09-25T09:02:38;8.07;;;7.27;;
12332;SDS011;6232;48.094;11.288;2022-09-25T09:05:26;28.17;;;15.53;;
12332;SDS011;6232;48.094;11.288;2022-09-25T09:08:19;7.30;;;6.60;;
12332;SDS011;6232;48.094;11.288;2022-09-25T09:11:11;7.13;;;6.43;;
12332;SDS011;6232;48.094;11.288;2022-09-25T09:13:59;10.00;;;6.93;;
12332;SDS011;6232;48.094;11.288;2022-09-25T09:16:50;7.47;;;6.53;;
12332;SDS011;6232;48.094;11.288;2022-09-25T09:19:36;11.10;;;7.90;;
12332;SDS011;6232;48.094;11.288;2022-09-25T09:22:24;8.80;;;7.73;;
12332;SDS011;6232;48.094;11.288;2022-09-25T09:25:22;9.30;;;8.13;;
12332;SDS011;6232;48.094;11.288;2022-09-25T09:40:19;21.97;;;11.80;;
12332;SDS011;6232;48.094;11.288;2022-09-25T09:51:53;7.83;;;7.03;;
12332;SDS011;6232;48.094;11.288;2022-09-25T09:54:54;7.70;;;6.90;;
12332;SDS011;6232;48.094;11.288;2022-09-25T09:57:47;14.40;;;11.20;;
12332;SDS011;6232;48.094;11.288;2022-09-25T10:00:34;18.27;;;12.17;;
12332;SDS011;6232;48.094;11.288;2022-09-25T10:03:31;7.40;;;6.70;;
12332;SDS011;6232;48.094;11.288;2022-09-25T10:06:18;7.40;;;6.17;;
12332;SDS011;6232;48.094;11.288;2022-09-25T10:09:07;7.43;;;6.40;;
12332;SDS011;6232;48.094;11.288;2022-09-25T10:12:05;6.03;;;5.43;;
12332;SDS011;6232;48.094;11.288;2022-09-25T10:14:52;7.30;;;6.37;;
12332;SDS011;6232;48.094;11.288;2022-09-25T10:17:37;6.43;;;5.60;;
12332;SDS011;6232;48.094;11.288;2022-09-25T10:20:24;5.77;;;5.13;;
12332;SDS011;6232;48.094;11.288;2022-09-25T10:31:56;5.20;;;4.77;;
12332;SDS011;6232;48.094;11.288;2022-09-25T10:34:41;6.40;;;5.00;;
12332;SDS011;6232;48.094;11.288;2022-09-25T10:37:33;7.40;;;5.87;;
12332;SDS011;6232;48.094;11.288;2022-09-25T10:40:21;6.07;;;5.40;;
12332;SDS011;6232;48.094;11.288;2022-09-25T10:46:12;5.60;;;5.00;;
12332;SDS011;6232;48.094;11.288;2022-09-25T10:49:05;7.30;;;5.17;;
12332;SDS011;6232;48.094;11.288;2022-09-25T10:52:15;5.10;;;4.60;;
12332;SDS011;6232;48.094;11.288;2022-09-25T10:55:18;5.67;;;5.10;;
12332;SDS011;6232;48.094;11.288;2022-09-25T10:58:12;5.37;;;4.23;;
12332;SDS011;6232;48.094;11.288;2022-09-25T11:01:00;5.53;;;5.03;;
12332;SDS011;6232;48.094;11.288;2022-09-25T11:03:55;6.47;;;4.67;;
12332;SDS011;6232;48.094;11.288;2022-09-25T11:06:45;5.30;;;4.80;;
12332;SDS011;6232;48.094;11.288;2022-09-25T11:09:31;6.60;;;5.33;;
12332;SDS011;6232;48.094;11.288;2022-09-25T11:12:21;6.27;;;4.80;;
12332;SDS011;6232;48.094;11.288;2022-09-25T11:15:11;6.80;;;5.30;;
12332;SDS011;6232;48.094;11.288;2022-09-25T11:18:00;8.30;;;5.57;;
12332;SDS011;6232;48.094;11.288;2022-09-25T11:20:59;5.20;;;4.70;;
12332;SDS011;6232;48.094;11.288;2022-09-25T11:23:56;7.07;;;5.67;;
12332;SDS011;6232;48.094;11.288;2022-09-25T11:26:47;6.00;;;5.33;;
12332;SDS011;6232;48.094;11.288;2022-09-25T11:35:42;9.50;;;6.87;;
12332;SDS011;6232;48.094;11.288;2022-09-25T11:38:40;6.70;;;6.10;;
12332;SDS011;6232;48.094;11.288;2022-09-25T11:44:53;8.57;;;7.60;;
12332;SDS011;6232;48.094;11.288;2022-09-25T11:47:52;8.23;;;7.13;;
12332;SDS011;6232;48.094;11.288;2022-09-25T11:56:47;8.90;;;7.33;;
12332;SDS011;6232;48.094;11.288;2022-09-25T12:11:33;8.80;;;7.90;;
12332;SDS011;6232;48.094;11.288;2022-09-25T12:14:33;18.70;;;12.60;;
12332;SDS011;6232;48.094;11.288;2022-09-25T12:23:23;9.93;;;7.43;;
12332;SDS011;6232;48.094;11.288;2022-09-25T12:26:29;8.00;;;7.20;;
12332;SDS011;6232;48.094;11.288;2022-09-25T12:29:38;7.30;;;6.60;;
12332;SDS011;6232;48.094;11.288;2022-09-25T12:33:11;9.60;;;8.60;;
12332;SDS011;6232;48.094;11.288;2022-09-25T12:38:25;9.53;;;6.73;;
12332;SDS011;6232;48.094;11.288;2022-09-25T12:44:15;8.73;;;7.30;;
12332;SDS011;6232;48.094;11.288;2022-09-25T12:50:06;8.33;;;6.70;;
12332;SDS011;6232;48.094;11.288;2022-09-25T12:52:56;8.30;;;7.47;;
12332;SDS011;6232;48.094;11.288;2022-09-25T12:55:45;10.50;;;8.77;;
12332;SDS011;6232;48.094;11.288;2022-09-25T12:58:40;8.47;;;7.47;;
12332;SDS011;6232;48.094;11.288;2022-09-25T13:01:54;8.30;;;7.20;;
12332;SDS011;6232;48.094;11.288;2022-09-25T13:07:50;10.07;;;8.20;;
12332;SDS011;6232;48.094;11.288;2022-09-25T13:10:51;12.70;;;10.37;;
12332;SDS011;6232;48.094;11.288;2022-09-25T13:13:45;11.13;;;7.60;;
12332;SDS011;6232;48.094;11.288;2022-09-25T13:16:32;10.27;;;8.13;;
12332;SDS011;6232;48.094;11.288;2022-09-25T13:19:26;22.30;;;15.90;;
12332;SDS011;6232;48.094;11.288;2022-09-25T13:22:16;11.70;;;8.00;;
12332;SDS011;6232;48.094;11.288;2022-09-25T13:25:12;8.97;;;7.40;;
12332;SDS011;6232;48.094;11.288;2022-09-25T13:28:05;9.17;;;7.20;;
12332;SDS011;6232;48.094;11.288;2022-09-25T13:30:56;10.00;;;7.47;;
12332;SDS011;6232;48.094;11.288;2022-09-25T13:36:50;12.57;;;7.80;;
12332;SDS011;6232;48.094;11.288;2022-09-25T13:42:43;9.70;;;8.13;;
12332;SDS011;6232;48.094;11.288;2022-09-25T13:45:31;20.83;;;17.00;;
12332;SDS011;6232;48.094;11.288;2022-09-25T13:56:52;10.00;;;7.80;;
12332;SDS011;6232;48.094;11.288;2022-09-25T13:59:39;12.00;;;9.60;;
12332;SDS011;6232;48.094;11.288;2022-09-25T14:02:31;8.60;;;7.70;;
12332;SDS011;6232;48.094;11.288;2022-09-25T14:05:21;9.80;;;8.90;;
12332;SDS011;6232;48.094;11.288;2022-09-25T14:08:13;7.33;;;6.57;;
12332;SDS011;6232;48.094;11.288;2022-09-25T14:11:00;8.30;;;6.10;;
12332;SDS011;6232;48.094;11.288;2022-09-25T14:13:46;5.83;;;5.33;;
12332;SDS011;6232;48.094;11.288;2022-09-25T14:16:35;6.90;;;6.23;;
12332;SDS011;6232;48.094;11.288;2022-09-25T14:19:23;7.83;;;7.07;;
12332;SDS011;6232;48.094;11.288;2022-09-25T14:25:30;7.90;;;7.10;;
12332;SDS011;6232;48.094;11.288;2022-09-25T14:40:04;23.37;;;18.13;;
12332;SDS011;6232;48.094;11.288;2022-09-25T14:43:00;34.33;;;24.50;;
12332;SDS011;6232;48.094;11.288;2022-09-25T14:48:37;16.27;;;14.60;;
12332;SDS011;6232;48.094;11.288;2022-09-25T14:51:24;35.97;;;26.13;;
12332;SDS011;6232;48.094;11.288;2022-09-25T14:54:12;72.63;;;49.00;;
12332;SDS011;6232;48.094;11.288;2022-09-25T14:57:00;74.17;;;53.57;;
12332;SDS011;6232;48.094;11.288;2022-09-25T14:59:49;27.27;;;19.67;;
12332;SDS011;6232;48.094;11.288;2022-09-25T15:02:37;33.90;;;22.80;;
12332;SDS011;6232;48.094;11.288;2022-09-25T15:05:28;24.83;;;22.03;;
12332;SDS011;6232;48.094;11.288;2022-09-25T15:08:19;10.20;;;8.70;;
12332;SDS011;6232;48.094;11.288;2022-09-25T15:14:07;18.33;;;16.30;;
12332;SDS011;6232;48.094;11.288;2022-09-25T15:16:53;7.57;;;6.40;;
12332;SDS011;6232;48.094;11.288;2022-09-25T15:19:58;7.73;;;6.63;;
12332;SDS011;6232;48.094;11.288;2022-09-25T15:22:46;12.80;;;7.20;;
12332;SDS011;6232;48.094;11.288;2022-09-25T15:25:34;8.33;;;6.60;;
12332;SDS011;6232;48.094;11.288;2022-09-25T15:28:21;8.80;;;7.17;;
12332;SDS011;6232;48.094;11.288;2022-09-25T15:31:08;7.37;;;5.00;;
12332;SDS011;6232;48.094;11.288;2022-09-25T15:34:01;7.00;;;5.67;;
12332;SDS011;6232;48.094;11.288;2022-09-25T15:36:49;6.87;;;5.77;;
12332;SDS011;6232;48.094;11.288;2022-09-25T15:39:41;8.90;;;7.23;;
12332;SDS011;6232;48.094;11.288;2022-09-25T15:42:27;6.80;;;6.10;;
12332;SDS011;6232;48.094;11.288;2022-09-25T15:47:56;6.60;;;5.30;;
12332;SDS011;6232;48.094;11.288;2022-09-25T15:50:32;7.00;;;5.93;;
12332;SDS011;6232;48.094;11.288;2022-09-25T15:52:59;10.47;;;5.77;;
12332;SDS011;6232;48.094;11.288;2022-09-25T15:55:25;8.07;;;7.20;;
12332;SDS011;6232;48.094;11.288;2022-09-25T15:57:52;9.83;;;6.00;;
12332;SDS011;6232;48.094;11.288;2022-09-25T16:00:20;7.20;;;5.90;;
12332;SDS011;6232;48.094;11.288;2022-09-25T16:03:25;10.33;;;6.77;;
12332;SDS011;6232;48.094;11.288;2022-09-25T16:06:14;7.17;;;5.43;;
12332;SDS011;6232;48.094;11.288;2022-09-25T16:08:40;11.07;;;8.50;;
12332;SDS011;6232;48.094;11.288;2022-09-25T16:11:22;9.80;;;7.40;;
12332;SDS011;6232;48.094;11.288;2022-09-25T16:13:48;8.20;;;6.20;;
12332;SDS011;6232;48.094;11.288;2022-09-25T16:16:23;33.70;;;20.83;;
12332;SDS011;6232;48.094;11.288;2022-09-25T16:18:54;24.30;;;18.93;;
12332;SDS011;6232;48.094;11.288;2022-09-25T16:21:30;21.60;;;18.23;;
12332;SDS011;6232;48.094;11.288;2022-09-25T16:24:04;13.73;;;11.90;;
12332;SDS011;6232;48.094;11.288;2022-09-25T16:26:39;16.20;;;14.67;;
12332;SDS011;6232;48.094;11.288;2022-09-25T16:31:38;72.40;;;51.80;;
12332;SDS011;6232;48.094;11.288;2022-09-25T16:34:27;63.07;;;41.90;;
12332;SDS011;6232;48.094;11.288;2022-09-25T16:37:19;41.20;;;27.53;;
12332;SDS011;6232;48.094;11.288;2022-09-25T16:40:18;67.73;;;36.63;;
12332;SDS011;6232;48.094;11.288;2022-09-25T16:43:22;26.33;;;18.40;;
12332;SDS011;6232;48.094;11.288;2022-09-25T16:46:11;15.23;;;8.07;;
12332;SDS011;6232;48.094;11.288;2022-09-25T16:48:58;10.90;;;7.73;;
12332;SDS011;6232;48.094;11.288;2022-09-25T16:51:44;9.60;;;7.10;;
12332;SDS011;6232;48.094;11.288;2022-09-25T16:54:31;11.27;;;7.60;;
12332;SDS011;6232;48.094;11.288;2022-09-25T16:57:17;45.47;;;25.13;;
12332;SDS011;6232;48.094;11.288;2022-09-25T17:00:03;9.90;;;6.80;;
12332;SDS011;6232;48.094;11.288;2022-09-25T17:02:50;18.03;;;11.70;;
12332;SDS011;6232;48.094;11.288;2022-09-25T17:05:35;15.97;;;6.90;;
12332;SDS011;6232;48.094;11.288;2022-09-25T17:08:21;8.00;;;6.63;;
12332;SDS011;6232;48.094;11.288;2022-09-25T17:11:13;7.67;;;6.57;;
12332;SDS011;6232;48.094;11.288;2022-09-25T17:13:59;10.30;;;6.23;;
12332;SDS011;6232;48.094;11.288;2022-09-25T17:16:45;7.33;;;6.13;;
12332;SDS011;6232;48.094;11.288;2022-09-25T17:19:30;7.57;;;6.73;;
12332;SDS011;6232;48.094;11.288;2022-09-25T17:22:16;9.30;;;7.70;;
12332;SDS011;6232;48.094;11.288;2022-09-25T17:25:04;10.20;;;7.33;;
12332;SDS011;6232;48.094;11.288;2022-09-25T17:27:52;10.10;;;7.50;;
12332;SDS011;6232;48.094;11.288;2022-09-25T17:30:38;8.57;;;7.27;;
12332;SDS011;6232;48.094;11.288;2022-09-25T17:33:24;9.87;;;8.23;;
12332;SDS011;6232;48.094;11.288;2022-09-25T17:36:10;17.20;;;8.83;;
12332;SDS011;6232;48.094;11.288;2022-09-25T17:38:55;10.10;;;7.83;;
12332;SDS011;6232;48.094;11.288;2022-09-25T17:41:41;20.30;;;12.90;;
12332;SDS011;6232;48.094;11.288;2022-09-25T17:44:27;12.33;;;8.50;;
12332;SDS011;6232;48.094;11.288;2022-09-25T17:47:13;11.83;;;9.40;;
12332;SDS011;6232;48.094;11.288;2022-09-25T17:49:58;10.73;;;8.07;;
12332;SDS011;6232;48.094;11.288;2022-09-25T17:52:44;10.90;;;8.10;;
12332;SDS011;6232;48.094;11.288;2022-09-25T17:55:29;13.80;;;10.60;;
12332;SDS011;6232;48.094;11.288;2022-09-25T17:58:16;14.07;;;10.23;;
12332;SDS011;6232;48.094;11.288;2022-09-25T18:01:02;14.13;;;10.80;;
12332;SDS011;6232;48.094;11.288;2022-09-25T18:03:51;13.63;;;10.47;;
12332;SDS011;6232;48.094;11.288;2022-09-25T18:06:37;16.13;;;11.23;;
12332;SDS011;6232;48.094;11.288;2022-09-25T18:09:22;18.30;;;13.50;;
12332;SDS011;6232;48.094;11.288;2022-09-25T18:12:08;24.23;;;12.83;;
12332;SDS011;6232;48.094;11.288;2022-09-25T18:14:53;18.10;;;13.23;;
12332;SDS011;6232;48.094;11.288;2022-09-25T18:17:39;15.40;;;12.50;;
12332;SDS011;6232;48.094;11.288;2022-09-25T18:20:25;15.57;;;11.10;;
12332;SDS011;6232;48.094;11.288;2022-09-25T18:23:29;14.00;;;12.40;;
12332;SDS011;6232;48.094;11.288;2022-09-25T18:26:17;34.53;;;24.53;;
12332;SDS011;6232;48.094;11.288;2022-09-25T18:29:03;16.87;;;13.13;;
12332;SDS011;6232;48.094;11.288;2022-09-25T18:31:49;23.50;;;12.73;;
12332;SDS011;6232;48.094;11.288;2022-09-25T18:34:34;14.63;;;11.67;;
12332;SDS011;6232;48.094;11.288;2022-09-25T18:37:20;18.90;;;12.77;;
12332;SDS011;6232;48.094;11.288;2022-09-25T18:40:21;16.27;;;13.17;;
12332;SDS011;6232;48.094;11.288;2022-09-25T18:46:55;23.80;;;14.10;;
12332;SDS011;6232;48.094;11.288;2022-09-25T18:49:43;17.40;;;12.23;;
12332;SDS011;6232;48.094;11.288;2022-09-25T18:52:29;22.63;;;15.20;;
12332;SDS011;6232;48.094;11.288;2022-09-25T18:55:16;19.67;;;14.33;;
12332;SDS011;6232;48.094;11.288;2022-09-25T18:58:01;19.77;;;14.07;;
12332;SDS011;6232;48.094;11.288;2022-09-25T19:00:47;14.67;;;13.10;;
12332;SDS011;6232;48.094;11.288;2022-09-25T19:03:33;30.57;;;13.23;;
12332;SDS011;6232;48.094;11.288;2022-09-25T19:06:18;18.00;;;14.20;;